Time;durP1;ratioP1;P1;durP2;ratioP2;P2;SDS_P1;SDS_P2;PMS_P1;PMS_P2;Temp;Humidity;BMP_temperature;BMP_pressure;BME280_temperature;BME280_humidity;BME280_pressure;Samples;Min_cycle;Max_cycle;Signal;HPM_P1;HPM_P2
2022/11/15 20:38:11;;;;;;;8.50;4.53;;;13.60;93.40;;;;;;5098288;27;20577;-81
2022/11/15 20:40:38;;;;;;;9.10;4.05;;;13.00;96.20;;;;;;5100518;28;20273;-80
2022/11/15 20:43:05;;;;;;;9.73;4.70;;;12.80;96.60;;;;;;5081960;28;20182;-84
2022/11/15 20:45:30;;;;;;;7.07;4.60;;;12.60;96.90;;;;;;5082052;28;20198;-84
2022/11/15 20:47:57;;;;;;;7.50;4.20;;;12.50;97.20;;;;;;5079330;28;20182;-85
2022/11/15 20:50:24;;;;;;;7.38;4.78;;;12.40;97.40;;;;;;5080781;28;20723;-83
2022/11/15 20:52:50;;;;;;;7.40;4.38;;;12.30;97.50;;;;;;5078661;28;20244;-82
2022/11/15 20:55:16;;;;;;;8.93;4.18;;;12.30;97.80;;;;;;5088231;28;20202;-83
2022/11/15 20:57:42;;;;;;;6.10;4.50;;;12.20;98.00;;;;;;5080825;28;20237;-83
2022/11/15 21:00:08;;;;;;;8.55;4.88;;;12.20;98.20;;;;;;5069320;28;20267;-84
2022/11/15 21:02:34;;;;;;;5.57;4.72;;;12.10;98.30;;;;;;5085204;28;20232;-87
2022/11/15 21:04:59;;;;;;;8.55;4.65;;;12.10;98.50;;;;;;5093710;28;20186;-85
2022/11/15 21:07:25;;;;;;;7.40;4.57;;;12.10;98.70;;;;;;5090524;28;20186;-84
2022/11/15 21:12:35;;;;;;;7.85;4.88;;;12.10;99.20;;;;;;5072890;28;20193;-84
2022/11/15 21:15:01;;;;;;;8.32;4.90;;;12.00;99.20;;;;;;5087778;28;20182;-85
2022/11/15 21:17:26;;;;;;;7.50;4.88;;;12.00;99.50;;;;;;5087953;28;20317;-84
2022/11/15 21:19:52;;;;;;;8.65;4.65;;;12.00;99.70;;;;;;5088395;28;20190;-84
2022/11/15 21:22:18;;;;;;;7.82;5.07;;;12.00;99.90;;;;;;5085316;28;20264;-84
2022/11/15 21:24:44;;;;;;;8.57;5.43;;;12.00;99.90;;;;;;5083455;28;20239;-85
2022/11/15 21:27:10;;;;;;;10.80;5.50;;;12.00;99.90;;;;;;5087982;28;20619;-85
2022/11/15 21:29:38;;;;;;;7.68;5.55;;;12.00;99.90;;;;;;5088687;28;20202;-84
2022/11/15 21:32:08;;;;;;;8.48;6.22;;;11.90;99.90;;;;;;5087471;28;20182;-84
2022/11/15 21:34:35;;;;;;;10.95;6.60;;;11.90;99.90;;;;;;5073040;28;20193;-83
2022/11/15 21:37:01;;;;;;;9.65;6.22;;;11.90;99.90;;;;;;5092676;28;20667;-84
2022/11/15 21:39:27;;;;;;;8.65;5.60;;;11.90;99.90;;;;;;5087702;28;20292;-83
2022/11/15 21:41:52;;;;;;;10.00;6.70;;;11.90;99.90;;;;;;5087329;28;20704;-83
2022/11/15 21:44:18;;;;;;;11.32;6.57;;;11.80;99.90;;;;;;5087711;28;20178;-85
2022/11/15 21:46:44;;;;;;;12.75;7.07;;;11.80;99.90;;;;;;5102206;28;20198;-85
2022/11/15 21:49:09;;;;;;;10.20;6.95;;;11.70;99.90;;;;;;5074578;28;20313;-84
2022/11/15 21:51:35;;;;;;;14.10;6.53;;;11.70;99.90;;;;;;5075497;28;20228;-84
2022/11/15 21:54:01;;;;;;;8.82;5.97;;;11.60;99.90;;;;;;5056398;28;20190;-84
2022/11/15 21:56:28;;;;;;;8.35;5.65;;;11.60;99.90;;;;;;5072585;28;20285;-84
2022/11/15 21:58:54;;;;;;;7.35;5.53;;;11.60;99.90;;;;;;5073897;28;20198;-84
2022/11/15 22:04:06;;;;;;;8.85;5.50;;;11.60;99.90;;;;;;5083693;28;20210;-84
2022/11/15 22:06:32;;;;;;;9.77;6.00;;;11.60;99.90;;;;;;5089049;28;20201;-83
2022/11/15 22:08:58;;;;;;;6.38;5.50;;;11.60;99.90;;;;;;5056859;28;20194;-84
2022/11/15 22:11:24;;;;;;;10.07;5.80;;;11.60;99.90;;;;;;5069930;28;20175;-83
2022/11/15 22:13:49;;;;;;;7.05;5.22;;;11.60;99.90;;;;;;5082694;28;20269;-83
2022/11/15 22:16:15;;;;;;;8.80;6.18;;;11.60;99.90;;;;;;5089478;28;20676;-83
2022/11/15 22:18:41;;;;;;;8.80;6.00;;;11.60;99.90;;;;;;5076728;28;20554;-84
2022/11/15 22:21:11;;;;;;;8.77;5.55;;;11.60;99.90;;;;;;5041386;28;20178;-84
2022/11/15 22:23:38;;;;;;;9.25;6.00;;;11.60;99.90;;;;;;5066585;28;20677;-84
2022/11/15 22:26:04;;;;;;;9.80;5.88;;;11.50;99.90;;;;;;5075462;28;20187;-84
2022/11/15 22:28:30;;;;;;;7.82;5.10;;;11.50;99.90;;;;;;5065713;28;20189;-84
2022/11/15 22:30:57;;;;;;;7.68;5.43;;;11.60;99.90;;;;;;5054084;28;20187;-84
2022/11/15 22:33:26;;;;;;;9.70;5.78;;;11.50;99.90;;;;;;5073320;28;20182;-84
2022/11/15 22:35:52;;;;;;;8.35;5.57;;;11.60;99.90;;;;;;5074557;28;20171;-84
2022/11/15 22:38:18;;;;;;;8.35;6.03;;;11.60;99.90;;;;;;5072210;28;20183;-84
2022/11/15 22:40:45;;;;;;;7.50;5.88;;;11.60;99.90;;;;;;5064416;28;20180;-86
2022/11/15 22:43:13;;;;;;;9.98;6.13;;;11.60;99.90;;;;;;5051958;28;20211;-84
2022/11/15 22:45:55;;;;;;;12.07;6.68;;;11.60;99.90;;;;;;5053615;28;20262;-84
2022/11/15 22:48:30;;;;;;;8.05;6.28;;;11.70;99.90;;;;;;5064555;28;20272;-84
2022/11/15 22:50:56;;;;;;;9.38;5.90;;;11.60;99.90;;;;;;5070580;28;20182;-84
2022/11/15 22:53:22;;;;;;;9.80;6.25;;;11.60;99.90;;;;;;5072218;28;20190;-83
2022/11/15 22:55:53;;;;;;;9.77;6.43;;;11.60;99.90;;;;;;5060201;28;20195;-84
2022/11/15 22:58:21;;;;;;;7.82;6.47;;;11.70;99.90;;;;;;5084361;28;20195;-85
2022/11/15 23:00:51;;;;;;;10.35;6.50;;;11.60;99.90;;;;;;5070567;28;20266;-84
2022/11/15 23:03:18;;;;;;;10.93;6.38;;;11.60;99.90;;;;;;5058813;28;20182;-85
2022/11/15 23:05:44;;;;;;;9.38;7.07;;;11.70;99.90;;;;;;5071969;28;20190;-84
2022/11/15 23:08:11;;;;;;;10.48;7.20;;;11.60;99.90;;;;;;5071639;28;20654;-84
2022/11/15 23:13:22;;;;;;;10.07;6.68;;;11.60;99.90;;;;;;5068077;28;20649;-84
2022/11/15 23:18:37;;;;;;;10.65;6.93;;;11.60;99.90;;;;;;5072107;28;20197;-84
2022/11/15 23:22:45;;;;;;;10.82;7.43;;;11.60;99.90;;;;;;5074060;28;20182;-83
2022/11/15 23:24:08;;;;;;;10.38;6.90;;;11.70;99.90;;;;;;5059173;28;20194;-85
2022/11/15 23:26:33;;;;;;;9.50;7.25;;;11.60;99.90;;;;;;5059068;28;20277;-86
2022/11/15 23:28:59;;;;;;;9.63;7.75;;;11.60;99.90;;;;;;5068027;28;20282;-85
2022/11/15 23:34:10;;;;;;;11.88;6.90;;;11.60;99.90;;;;;;5082851;28;20186;-85
2022/11/15 23:36:36;;;;;;;10.18;7.78;;;11.70;99.90;;;;;;5073748;28;20238;-84
2022/11/15 23:39:03;;;;;;;10.40;6.90;;;11.70;99.90;;;;;;5071400;28;20194;-85
2022/11/15 23:41:28;;;;;;;9.57;7.55;;;11.70;99.90;;;;;;5072488;28;20190;-84
2022/11/15 23:43:54;;;;;;;10.68;7.35;;;11.70;99.90;;;;;;5068393;28;20183;-84
2022/11/15 23:46:20;;;;;;;12.30;7.70;;;11.70;99.90;;;;;;5052090;28;20535;-84
2022/11/15 23:48:46;;;;;;;11.68;7.20;;;11.70;99.90;;;;;;5064270;28;20182;-84
2022/11/15 23:51:12;;;;;;;9.57;7.40;;;11.60;99.90;;;;;;5088106;28;20246;-84
2022/11/15 23:53:38;;;;;;;11.05;7.90;;;11.70;99.90;;;;;;5068745;28;20190;-83
2022/11/15 23:56:06;;;;;;;12.00;8.18;;;11.70;99.90;;;;;;5053458;28;20208;-84
2022/11/15 23:58:32;;;;;;;13.02;8.93;;;11.70;99.90;;;;;;5071774;28;20182;-84
